createdAt,value
2018-02-19T00:00:20.332Z,101732
2018-02-19T00:02:46.465Z,101720
2018-02-19T00:05:12.614Z,101722
2018-02-19T00:07:39.140Z,101726
2018-02-19T00:10:05.301Z,101721
2018-02-19T00:12:31.426Z,101714
2018-02-19T00:14:57.561Z,101710
2018-02-19T00:17:24.441Z,101712
2018-02-19T00:19:50.577Z,101707
2018-02-19T00:22:16.710Z,101713
2018-02-19T00:24:42.846Z,101701
2018-02-19T00:27:09.509Z,101705
2018-02-19T00:29:35.643Z,101751
2018-02-19T00:32:01.778Z,101701
2018-02-19T00:34:28.681Z,101702
2018-02-19T00:36:54.812Z,101701
2018-02-19T00:39:20.960Z,101696
2018-02-19T00:41:47.125Z,101699
2018-02-19T00:44:13.276Z,101696
2018-02-19T00:46:39.399Z,101689
2018-02-19T00:49:05.540Z,101684
2018-02-19T00:51:31.668Z,101690
2018-02-19T00:53:57.802Z,101694
2018-02-19T00:56:23.957Z,101683
2018-02-19T00:58:50.086Z,101680
2018-02-19T01:01:16.966Z,101684
2018-02-19T01:03:43.100Z,101675
2018-02-19T01:06:09.270Z,101676
2018-02-19T01:08:35.441Z,101677
2018-02-19T01:11:01.590Z,101679
2018-02-19T01:13:27.727Z,101680
2018-02-19T01:15:53.876Z,101675
2018-02-19T01:18:20.010Z,101676
2018-02-19T01:20:46.161Z,101674
2018-02-19T01:23:12.304Z,101663
2018-02-19T01:25:38.438Z,101666
2018-02-19T01:28:04.585Z,101662
2018-02-19T01:30:30.726Z,101655
2018-02-19T01:32:56.881Z,101649
2018-02-19T01:35:23.769Z,101650
2018-02-19T01:37:49.905Z,101639
2018-02-19T01:40:16.066Z,101640
2018-02-19T01:42:42.963Z,101641
2018-02-19T01:45:09.101Z,101641
2018-02-19T01:47:35.235Z,101635
2018-02-19T01:50:14.644Z,101636
2018-02-19T01:52:40.791Z,101636
2018-02-19T01:55:07.553Z,101633
2018-02-19T01:57:33.697Z,101620
2018-02-19T02:00:00.611Z,101618
2018-02-19T02:02:26.765Z,101627
2018-02-19T02:04:53.689Z,101619
2018-02-19T02:07:21.309Z,101614
2018-02-19T02:09:47.466Z,101615
2018-02-19T02:12:13.617Z,101606
2018-02-19T02:14:39.761Z,101604
2018-02-19T02:17:06.677Z,101604
2018-02-19T02:19:32.839Z,101600
2018-02-19T02:22:00.129Z,101596
2018-02-19T02:24:26.293Z,101588
2018-02-19T02:26:52.448Z,101586
2018-02-19T02:29:18.593Z,101583
2018-02-19T02:31:44.737Z,101580
2018-02-19T02:34:10.893Z,101578
2018-02-19T02:36:37.021Z,101573
2018-02-19T02:39:03.165Z,101579
2018-02-19T02:41:29.341Z,101571
2018-02-19T02:43:55.497Z,101568
2018-02-19T02:46:21.647Z,101570
2018-02-19T02:48:47.803Z,101568
2018-02-19T02:51:14.365Z,101563
2018-02-19T02:53:40.511Z,101559
2018-02-19T02:56:06.647Z,101555
2018-02-19T02:58:40.481Z,101564
2018-02-19T03:01:06.622Z,101558
2018-02-19T03:03:32.786Z,101561
2018-02-19T03:05:58.950Z,101567
2018-02-19T03:08:25.851Z,101550
2018-02-19T03:10:52.001Z,101555
2018-02-19T03:13:18.145Z,101547
2018-02-19T03:15:45.033Z,101547
2018-02-19T03:18:11.180Z,101553
2018-02-19T03:20:37.320Z,101552
2018-02-19T03:23:03.489Z,101550
2018-02-19T03:25:29.638Z,101558
2018-02-19T03:27:55.788Z,101545
2018-02-19T03:30:21.939Z,101543
2018-02-19T03:32:48.094Z,101546
2018-02-19T03:35:14.258Z,101542
2018-02-19T03:37:40.425Z,101544
2018-02-19T03:40:07.313Z,101549
2018-02-19T03:42:33.457Z,101556
2018-02-19T03:44:59.601Z,101552
2018-02-19T03:47:25.757Z,101547
2018-02-19T03:49:51.927Z,101551
2018-02-19T03:52:18.121Z,101551
2018-02-19T03:54:44.267Z,101547
2018-02-19T03:57:10.695Z,101551
2018-02-19T03:59:36.828Z,101541
2018-02-19T04:02:02.962Z,101542
2018-02-19T04:04:29.109Z,101554
2018-02-19T04:06:55.266Z,101552
2018-02-19T04:09:22.136Z,101544
2018-02-19T04:11:48.295Z,101540
2018-02-19T04:14:14.443Z,101548
2018-02-19T04:16:42.053Z,101545
2018-02-19T04:19:08.208Z,101540
2018-02-19T04:21:34.350Z,101536
2018-02-19T04:24:00.509Z,101530
2018-02-19T04:26:26.685Z,101536
2018-02-19T04:28:52.829Z,101529
2018-02-19T04:31:18.997Z,101527
2018-02-19T04:33:45.880Z,101529
2018-02-19T04:36:12.021Z,101537
2018-02-19T04:38:38.165Z,101537
2018-02-19T04:41:04.320Z,101525
2018-02-19T04:43:30.496Z,101520
2018-02-19T04:46:02.819Z,101531
2018-02-19T04:48:33.042Z,101512
2018-02-19T04:51:07.089Z,101519
2018-02-19T04:53:33.230Z,101516
2018-02-19T04:55:59.399Z,101513
2018-02-19T04:58:25.546Z,101513
2018-02-19T05:00:51.693Z,101515
2018-02-19T05:03:17.838Z,101510
2018-02-19T05:05:44.005Z,101509
2018-02-19T05:08:10.885Z,101509
2018-02-19T05:10:37.030Z,101509
2018-02-19T05:13:03.173Z,101508
2018-02-19T05:15:29.341Z,101515
2018-02-19T05:17:56.250Z,101520
2018-02-19T05:20:22.442Z,101517
2018-02-19T05:22:48.585Z,101524
2018-02-19T05:25:16.645Z,101522
2018-02-19T05:27:42.778Z,101528
2018-02-19T05:30:08.920Z,101524
2018-02-19T05:32:35.077Z,101516
2018-02-19T05:35:01.241Z,101523
2018-02-19T05:37:27.398Z,101512
2018-02-19T05:39:53.533Z,101519
2018-02-19T05:42:19.677Z,101511
2018-02-19T05:44:45.818Z,101515
2018-02-19T05:47:11.978Z,101520
2018-02-19T05:49:38.132Z,101515
2018-02-19T05:52:04.301Z,101517
2018-02-19T05:54:30.462Z,101519
2018-02-19T05:56:56.585Z,101522
2018-02-19T05:59:22.720Z,101518
2018-02-19T06:01:48.868Z,101523
2018-02-19T06:04:15.018Z,101532
2018-02-19T06:06:41.185Z,101533
2018-02-19T06:09:07.322Z,101530
2018-02-19T06:11:33.469Z,101529
2018-02-19T06:13:59.618Z,101526
2018-02-19T06:16:25.775Z,101528
2018-02-19T06:18:51.933Z,101526
2018-02-19T06:21:18.077Z,101524
2018-02-19T06:23:44.225Z,101521
2018-02-19T06:26:10.473Z,101518
2018-02-19T06:28:36.622Z,101528
2018-02-19T06:31:02.765Z,101522
2018-02-19T06:33:29.109Z,101517
2018-02-19T06:35:55.317Z,101515
2018-02-19T06:38:22.205Z,101523
2018-02-19T06:40:48.358Z,101523
2018-02-19T06:43:14.517Z,101520
2018-02-19T06:45:40.674Z,101528
2018-02-19T06:48:06.840Z,101519
2018-02-19T06:50:33.483Z,101527
2018-02-19T06:52:59.633Z,101534
2018-02-19T06:55:25.801Z,101535
2018-02-19T06:57:52.312Z,101525
2018-02-19T07:00:18.480Z,101535
2018-02-19T07:02:45.381Z,101523
2018-02-19T07:05:11.553Z,101533
2018-02-19T07:07:38.865Z,101526
2018-02-19T07:10:05.008Z,101534
2018-02-19T07:12:31.177Z,101522
2018-02-19T07:14:57.313Z,101526
2018-02-19T07:17:23.465Z,101517
2018-02-19T07:19:49.609Z,101522
2018-02-19T07:22:15.741Z,101532
2018-02-19T07:24:42.276Z,101528
2018-02-19T07:27:09.889Z,101513
2018-02-19T07:29:36.043Z,101515
2018-02-19T07:32:02.208Z,101511
2018-02-19T07:34:29.153Z,101523
2018-02-19T07:36:55.294Z,101521
2018-02-19T07:39:22.193Z,101519
2018-02-19T07:41:48.333Z,101516
2018-02-19T07:44:14.527Z,101515
2018-02-19T07:46:41.421Z,101509
2018-02-19T07:49:08.301Z,101523
2018-02-19T07:51:34.719Z,101516
2018-02-19T07:54:00.893Z,101510
2018-02-19T07:56:27.024Z,101520
2018-02-19T07:58:53.177Z,101522
2018-02-19T08:01:19.337Z,101518
2018-02-19T08:03:45.477Z,101515
2018-02-19T08:06:11.624Z,101505
2018-02-19T08:08:37.774Z,101515
2018-02-19T08:11:03.929Z,101507
2018-02-19T08:13:30.864Z,101506
2018-02-19T08:15:57.012Z,101512
2018-02-19T08:18:23.144Z,101509
2018-02-19T08:20:49.298Z,101509
2018-02-19T08:23:15.430Z,101508
2018-02-19T08:25:41.590Z,101513
2018-02-19T08:28:07.732Z,101501
2018-02-19T08:30:34.634Z,101503
2018-02-19T08:33:00.770Z,101502
2018-02-19T08:35:26.915Z,101503
2018-02-19T08:37:53.078Z,101505
2018-02-19T08:40:19.229Z,101493
2018-02-19T08:42:45.363Z,101503
2018-02-19T08:45:11.528Z,101507
2018-02-19T08:47:38.405Z,101500
2018-02-19T08:50:04.562Z,101500
2018-02-19T08:52:30.718Z,101499
2018-02-19T08:54:56.853Z,101494
2018-02-19T08:57:23.006Z,101494
2018-02-19T08:59:49.138Z,101497
2018-02-19T09:02:15.284Z,101494
2018-02-19T09:04:41.457Z,101492
2018-02-19T09:07:07.597Z,101492
2018-02-19T09:09:34.885Z,101495
2018-02-19T09:12:01.034Z,101494
2018-02-19T09:14:27.190Z,101486
2018-02-19T09:16:54.097Z,101484
2018-02-19T09:19:20.225Z,101481
2018-02-19T09:21:46.370Z,101485
2018-02-19T09:24:12.547Z,101491
2018-02-19T09:26:38.947Z,101487
2018-02-19T09:29:05.086Z,101490
2018-02-19T09:31:31.981Z,101487
2018-02-19T09:33:58.124Z,101489
2018-02-19T09:36:24.269Z,101494
2018-02-19T09:38:51.142Z,101489
2018-02-19T09:41:17.297Z,101486
2018-02-19T09:43:43.457Z,101491
2018-02-19T09:46:09.605Z,101493
2018-02-19T09:48:36.486Z,101485
2018-02-19T09:51:02.642Z,101494
2018-02-19T09:53:28.821Z,101493
2018-02-19T09:55:55.189Z,101493
2018-02-19T09:58:21.345Z,101491
2018-02-19T10:00:47.496Z,101494
2018-02-19T10:03:13.626Z,101492
2018-02-19T10:05:39.842Z,101498
2018-02-19T10:08:05.955Z,101497
2018-02-19T10:10:32.106Z,101496
2018-02-19T10:12:58.253Z,101498
2018-02-19T10:15:24.398Z,101487
2018-02-19T10:17:50.556Z,101496
2018-02-19T10:20:16.726Z,101497
2018-02-19T10:22:42.869Z,101482
2018-02-19T10:25:09.013Z,101494
2018-02-19T10:27:35.173Z,101480
2018-02-19T10:30:02.505Z,101486
2018-02-19T10:32:29.411Z,101494
2018-02-19T10:34:55.572Z,101486
2018-02-19T10:37:21.764Z,101486
2018-02-19T10:39:48.625Z,101477
2018-02-19T10:42:14.792Z,101487
2018-02-19T10:44:40.955Z,101483
2018-02-19T10:47:07.106Z,101488
2018-02-19T10:49:33.331Z,101473
2018-02-19T10:51:59.876Z,101485
2018-02-19T10:54:26.017Z,101487
2018-02-19T10:56:53.674Z,101483
2018-02-19T10:59:19.819Z,101473
2018-02-19T11:01:45.982Z,101486
2018-02-19T11:04:15.047Z,101334
2018-02-19T11:06:41.936Z,101479
2018-02-19T11:09:08.069Z,101479
2018-02-19T11:11:34.220Z,101481
2018-02-19T11:14:00.359Z,101479
2018-02-19T11:16:27.262Z,101474
2018-02-19T11:18:53.407Z,101467
2018-02-19T11:21:19.835Z,101469
2018-02-19T11:23:45.970Z,101462
2018-02-19T11:26:12.114Z,101461
2018-02-19T11:28:38.277Z,101451
2018-02-19T11:31:04.444Z,101454
2018-02-19T11:33:30.594Z,101454
2018-02-19T11:35:56.744Z,101457
2018-02-19T11:38:22.918Z,101441
2018-02-19T11:40:49.064Z,101454
2018-02-19T11:43:15.277Z,101442
2018-02-19T11:45:41.441Z,101442
2018-02-19T11:48:08.341Z,101434
2018-02-19T11:50:34.485Z,101439
2018-02-19T11:53:00.670Z,101435
2018-02-19T11:55:27.242Z,101446
2018-02-19T11:57:53.401Z,101433
2018-02-19T12:00:19.550Z,101438
2018-02-19T12:02:45.755Z,101439
2018-02-19T12:05:11.909Z,101433
2018-02-19T12:07:38.045Z,101422
2018-02-19T12:10:04.202Z,101417
2018-02-19T12:12:30.337Z,101421
2018-02-19T12:14:56.465Z,101422
2018-02-19T12:17:22.633Z,101421
2018-02-19T12:19:48.798Z,101412
2018-02-19T12:22:15.465Z,101412
2018-02-19T12:24:41.605Z,101422
2018-02-19T12:27:07.748Z,101415
2018-02-19T12:29:33.924Z,101417
2018-02-19T12:32:00.066Z,101419
2018-02-19T12:34:26.243Z,101417
2018-02-19T12:36:52.369Z,101421
2018-02-19T12:39:18.585Z,101417
2018-02-19T12:41:44.752Z,101410
2018-02-19T12:44:17.960Z,101414
2018-02-19T12:46:44.096Z,101408
2018-02-19T12:49:10.233Z,101408
2018-02-19T12:51:37.137Z,101412
2018-02-19T12:54:03.304Z,101393
2018-02-19T12:56:30.237Z,101398
2018-02-19T12:58:56.438Z,101414
2018-02-19T13:01:22.656Z,101394
2018-02-19T13:03:48.805Z,101380
2018-02-19T13:06:14.952Z,101382
2018-02-19T13:08:41.122Z,101391
2018-02-19T13:11:07.270Z,101380
2018-02-19T13:13:33.436Z,101388
2018-02-19T13:15:59.637Z,101384
2018-02-19T13:18:26.058Z,101383
2018-02-19T13:20:52.202Z,101379
2018-02-19T13:23:18.365Z,101373
2018-02-19T13:25:44.533Z,101375
2018-02-19T13:28:10.713Z,101367
2018-02-19T13:30:36.889Z,101366
2018-02-19T13:33:03.030Z,101373
2018-02-19T13:35:29.676Z,101376
2018-02-19T13:37:55.818Z,101380
2018-02-19T13:40:21.989Z,101376
2018-02-19T13:42:48.157Z,101373
2018-02-19T13:45:14.314Z,101361
2018-02-19T13:47:41.221Z,101364
2018-02-19T13:50:07.369Z,101369
2018-02-19T13:52:33.562Z,101373
2018-02-19T13:54:59.714Z,101364
2018-02-19T13:57:26.477Z,101371
2018-02-19T13:59:52.625Z,101374
2018-02-19T14:02:19.517Z,101373
2018-02-19T14:04:45.645Z,101376
2018-02-19T14:07:11.777Z,101368
2018-02-19T14:09:37.909Z,101366
2018-02-19T14:12:04.046Z,101380
2018-02-19T14:14:30.193Z,101374
2018-02-19T14:16:57.139Z,101376
2018-02-19T14:19:24.033Z,101377
2018-02-19T14:21:50.186Z,101378
2018-02-19T14:24:18.075Z,101383
2018-02-19T14:26:44.177Z,101379
2018-02-19T14:29:11.129Z,101380
2018-02-19T14:31:38.049Z,101390
2018-02-19T14:34:04.174Z,101386
2018-02-19T14:36:30.901Z,101380
2018-02-19T14:38:57.029Z,101380
2018-02-19T14:41:23.243Z,101368
2018-02-19T14:43:49.391Z,101381
2018-02-19T14:46:15.540Z,101376
2018-02-19T14:48:43.161Z,101374
2018-02-19T14:51:09.329Z,101376
2018-02-19T14:53:35.457Z,101373
2018-02-19T14:56:01.605Z,101374
2018-02-19T14:58:28.509Z,101365
2018-02-19T15:00:54.653Z,101364
2018-02-19T15:03:20.785Z,101368
2018-02-19T15:05:46.909Z,101366
2018-02-19T15:08:13.257Z,101366
2018-02-19T15:10:39.385Z,101370
2018-02-19T15:13:06.325Z,101365
2018-02-19T15:15:32.476Z,101364
2018-02-19T15:17:58.649Z,101371
2018-02-19T15:20:24.781Z,101332
2018-02-19T15:22:50.943Z,101363
2018-02-19T15:25:17.120Z,101351
2018-02-19T15:27:43.361Z,101361
2018-02-19T15:30:09.505Z,101358
2018-02-19T15:32:36.401Z,101367
2018-02-19T15:35:02.543Z,101364
2018-02-19T15:37:28.681Z,101362
2018-02-19T15:39:54.809Z,101350
2018-02-19T15:42:20.981Z,101362
2018-02-19T15:44:47.133Z,101348
2018-02-19T15:47:13.277Z,101355
2018-02-19T15:49:39.439Z,101360
2018-02-19T15:52:06.317Z,101348
2018-02-19T15:54:33.008Z,101349
2018-02-19T15:56:59.156Z,101341
2018-02-19T15:59:25.291Z,101341
2018-02-19T16:01:52.242Z,101352
2018-02-19T16:04:18.353Z,101342
2018-02-19T16:06:51.577Z,101343
2018-02-19T16:09:17.762Z,101351
2018-02-19T16:11:44.007Z,101343
2018-02-19T16:14:10.107Z,101357
2018-02-19T16:16:36.261Z,101347
2018-02-19T16:19:02.527Z,101352
2018-02-19T16:21:29.016Z,101344
2018-02-19T16:23:55.165Z,101344
2018-02-19T16:26:21.349Z,101356
2018-02-19T16:28:47.491Z,101350
2018-02-19T16:31:14.361Z,101350
2018-02-19T16:33:40.521Z,101348
2018-02-19T16:36:06.660Z,101352
2018-02-19T16:38:32.868Z,101340
2018-02-19T16:40:59.014Z,101357
2018-02-19T16:43:25.177Z,101344
2018-02-19T16:45:51.321Z,101355
2018-02-19T16:48:17.503Z,101361
2018-02-19T16:50:43.678Z,101352
2018-02-19T16:53:09.875Z,101352
2018-02-19T16:55:36.393Z,101355
2018-02-19T16:58:02.526Z,101346
2018-02-19T17:00:28.673Z,101363
2018-02-19T17:02:54.821Z,101360
2018-02-19T17:05:20.962Z,101351
2018-02-19T17:07:47.111Z,101359
2018-02-19T17:10:13.264Z,101363
2018-02-19T17:12:39.410Z,101367
2018-02-19T17:15:05.585Z,101365
2018-02-19T17:17:31.714Z,101360
2018-02-19T17:19:57.882Z,101349
2018-02-19T17:22:24.303Z,101361
2018-02-19T17:24:50.453Z,101357
2018-02-19T17:27:17.341Z,101352
2018-02-19T17:29:43.489Z,101366
2018-02-19T17:32:09.644Z,101377
2018-02-19T17:34:35.793Z,101368
2018-02-19T17:37:01.958Z,101372
2018-02-19T17:39:28.138Z,101369
2018-02-19T17:41:54.269Z,101371
2018-02-19T17:44:20.425Z,101366
2018-02-19T17:46:46.584Z,101369
2018-02-19T17:49:12.733Z,101373
2018-02-19T17:51:39.837Z,101356
2018-02-19T17:54:05.986Z,101364
2018-02-19T17:56:32.137Z,101345
2018-02-19T17:58:58.284Z,101348
2018-02-19T18:01:24.441Z,101355
2018-02-19T18:03:50.586Z,101359
2018-02-19T18:06:16.733Z,101362
2018-02-19T18:08:42.872Z,101350
2018-02-19T18:11:09.030Z,101368
2018-02-19T18:13:35.179Z,101363
2018-02-19T18:16:01.318Z,101361
2018-02-19T18:18:27.491Z,101372
2018-02-19T18:20:53.869Z,101369
2018-02-19T18:23:20.018Z,101361
2018-02-19T18:25:46.179Z,101365
2018-02-19T18:28:12.326Z,101350
2018-02-19T18:30:38.480Z,101362
2018-02-19T18:33:04.633Z,101345
2018-02-19T18:35:30.798Z,101352
2018-02-19T18:37:56.977Z,101350
2018-02-19T18:40:23.117Z,101364
2018-02-19T18:42:49.257Z,101357
2018-02-19T18:45:15.439Z,101355
2018-02-19T18:47:41.573Z,101360
2018-02-19T18:50:07.738Z,101361
2018-02-19T18:52:34.621Z,101356
2018-02-19T18:55:00.765Z,101361
2018-02-19T18:57:26.982Z,101356
2018-02-19T18:59:53.133Z,101359
2018-02-19T19:02:19.289Z,101364
2018-02-19T19:04:46.201Z,101355
2018-02-19T19:07:24.580Z,101350
2018-02-19T19:10:09.408Z,101362
2018-02-19T19:12:35.570Z,101364
2018-02-19T19:15:01.775Z,101358
2018-02-19T19:17:27.909Z,101363
2018-02-19T19:19:54.097Z,101355
2018-02-19T19:22:20.261Z,101361
2018-02-19T19:24:46.489Z,101360
2018-02-19T19:27:12.681Z,101352
2018-02-19T19:29:39.558Z,101362
2018-02-19T19:32:05.749Z,101348
2018-02-19T19:34:33.374Z,101349
2018-02-19T19:36:59.538Z,101349
2018-02-19T19:39:26.451Z,101350
2018-02-19T19:41:53.141Z,101338
2018-02-19T19:44:19.294Z,101344
2018-02-19T19:46:45.434Z,101346
2018-02-19T19:49:11.655Z,101341
2018-02-19T19:51:37.809Z,101338
2018-02-19T19:54:04.013Z,101334
2018-02-19T19:56:30.185Z,101330
2018-02-19T19:58:56.330Z,101336
2018-02-19T20:01:23.444Z,101338
2018-02-19T20:03:49.598Z,101330
2018-02-19T20:06:15.758Z,101331
2018-02-19T20:08:41.894Z,101334
2018-02-19T20:11:08.046Z,101322
2018-02-19T20:13:34.218Z,101329
2018-02-19T20:16:00.364Z,101327
2018-02-19T20:18:26.522Z,101326
2018-02-19T20:20:52.694Z,101330
2018-02-19T20:23:19.568Z,101336
2018-02-19T20:25:45.747Z,101325
2018-02-19T20:28:11.877Z,101326
2018-02-19T20:30:38.799Z,101332
2018-02-19T20:33:05.953Z,101253
2018-02-19T20:35:32.130Z,101324
2018-02-19T20:37:58.625Z,101334
2018-02-19T20:40:25.071Z,101322
2018-02-19T20:42:51.963Z,101321
2018-02-19T20:45:18.601Z,101318
2018-02-19T20:47:44.785Z,101317
2018-02-19T20:50:10.956Z,101325
2018-02-19T20:52:37.113Z,101325
2018-02-19T20:55:05.063Z,101324
2018-02-19T20:57:31.232Z,101340
2018-02-19T20:59:57.403Z,101338
2018-02-19T21:02:23.601Z,101336
2018-02-19T21:04:50.533Z,101334
2018-02-19T21:07:16.722Z,101347
2018-02-19T21:09:42.889Z,101334
2018-02-19T21:12:09.941Z,101329
2018-02-19T21:14:36.104Z,101340
2018-02-19T21:17:02.254Z,101336
2018-02-19T21:19:28.431Z,101351
2018-02-19T21:21:54.580Z,101338
2018-02-19T21:24:20.736Z,101338
2018-02-19T21:26:46.898Z,101339
2018-02-19T21:29:13.070Z,101341
2018-02-19T21:31:39.228Z,101343
2018-02-19T21:34:05.382Z,101345
2018-02-19T21:36:32.283Z,101339
2018-02-19T21:38:58.451Z,101340
2018-02-19T21:41:25.336Z,101334
2018-02-19T21:43:51.484Z,101331
2018-02-19T21:46:17.645Z,101349
2018-02-19T21:48:43.841Z,101349
2018-02-19T21:51:10.013Z,101341
2018-02-19T21:53:36.176Z,101335
2018-02-19T21:56:02.387Z,101345
2018-02-19T21:58:28.512Z,101340
2018-02-19T22:00:55.029Z,101345
2018-02-19T22:03:21.921Z,101343
2018-02-19T22:05:48.066Z,101338
2018-02-19T22:08:14.211Z,101343
2018-02-19T22:10:40.397Z,101341
2018-02-19T22:13:06.538Z,101337
2018-02-19T22:15:32.681Z,101335
2018-02-19T22:17:58.850Z,101336
2018-02-19T22:20:25.001Z,101338
2018-02-19T22:22:51.164Z,101334
2018-02-19T22:25:17.333Z,101332
2018-02-19T22:27:43.488Z,101336
2018-02-19T22:30:09.637Z,101332
2018-02-19T22:32:36.100Z,101329
2018-02-19T22:35:03.023Z,101324
2018-02-19T22:37:29.175Z,101332
2018-02-19T22:39:55.317Z,101324
2018-02-19T22:42:21.462Z,101324
2018-02-19T22:44:47.744Z,101329
2018-02-19T22:47:13.909Z,101329
2018-02-19T22:49:40.041Z,101323
2018-02-19T22:52:06.788Z,101321
2018-02-19T22:54:32.931Z,101318
2018-02-19T22:56:59.089Z,101321
2018-02-19T22:59:25.526Z,101318
2018-02-19T23:01:52.417Z,101324
2018-02-19T23:04:18.570Z,101324
2018-02-19T23:06:44.705Z,101333
2018-02-19T23:09:10.864Z,101343
2018-02-19T23:11:37.762Z,101321
2018-02-19T23:14:03.906Z,101350
2018-02-19T23:16:30.062Z,101330
2018-02-19T23:18:56.947Z,101330
2018-02-19T23:21:23.093Z,101343
2018-02-19T23:23:49.258Z,101325
2018-02-19T23:26:16.147Z,101338
2018-02-19T23:28:42.286Z,101335
2018-02-19T23:31:08.422Z,101329
2018-02-19T23:33:34.591Z,101327
2018-02-19T23:36:00.737Z,101333
2018-02-19T23:38:26.868Z,101330
2018-02-19T23:40:53.029Z,101332
2018-02-19T23:43:20.661Z,101326
2018-02-19T23:45:46.784Z,101335
2018-02-19T23:48:12.912Z,101333
2018-02-19T23:50:39.085Z,101336
2018-02-19T23:53:05.985Z,101335
2018-02-19T23:55:32.124Z,101336
2018-02-19T23:57:58.272Z,101325
